createdAt,value
2023-01-03T00:02:19.959Z,79.37
2023-01-03T00:04:50.541Z,79.36
2023-01-03T00:07:22.730Z,79.09
2023-01-03T00:09:53.214Z,78.85
2023-01-03T00:12:31.191Z,78.94
2023-01-03T00:15:00.896Z,78.97
2023-01-03T00:17:32.532Z,78.50
2023-01-03T00:20:03.115Z,78.78
2023-01-03T00:22:34.835Z,78.44
2023-01-03T00:25:07.617Z,78.20
2023-01-03T00:27:39.488Z,78.54
2023-01-03T00:30:11.666Z,78.25
2023-01-03T00:32:42.315Z,78.14
2023-01-03T00:35:12.822Z,78.10
2023-01-03T00:37:44.859Z,78.18
2023-01-03T00:40:15.636Z,78.27
2023-01-03T00:43:04.131Z,77.71
2023-01-03T00:45:36.492Z,77.59
2023-01-03T00:48:07.356Z,78.14
2023-01-03T00:50:43.129Z,78.10
2023-01-03T00:53:14.600Z,77.59
2023-01-03T00:55:45.107Z,77.93
2023-01-03T00:58:15.592Z,77.82
2023-01-03T01:00:49.714Z,78.57
2023-01-03T01:03:20.263Z,78.26
2023-01-03T01:05:50.943Z,78.88
2023-01-03T01:08:22.673Z,78.14
2023-01-03T01:11:04.407Z,78.10
2023-01-03T01:13:36.936Z,78.24
2023-01-03T01:16:10.357Z,78.73
2023-01-03T01:18:42.840Z,78.28
2023-01-03T01:21:18.717Z,78.62
2023-01-03T01:23:49.819Z,78.05
2023-01-03T01:26:22.456Z,77.41
2023-01-03T01:28:54.317Z,76.89
2023-01-03T01:31:26.961Z,77.25
2023-01-03T01:33:58.391Z,77.63
2023-01-03T01:36:31.718Z,77.84
2023-01-03T01:39:11.923Z,78.08
2023-01-03T01:42:02.124Z,77.78
2023-01-03T01:44:47.708Z,78.27
2023-01-03T01:47:26.777Z,77.81
2023-01-03T01:50:15.096Z,77.29
2023-01-03T01:52:54.819Z,77.43
2023-01-03T01:55:28.657Z,77.65
2023-01-03T01:58:01.683Z,77.53
2023-01-03T02:00:34.337Z,77.86
2023-01-03T02:03:05.562Z,77.84
2023-01-03T02:05:39.009Z,77.68
2023-01-03T02:08:09.644Z,77.27
2023-01-03T02:10:51.795Z,77.50
2023-01-03T02:13:25.255Z,77.71
2023-01-03T02:16:15.699Z,76.73
2023-01-03T02:19:10.946Z,77.48
2023-01-03T02:22:18.432Z,77.67
2023-01-03T02:25:02.268Z,78.41
2023-01-03T02:27:58.520Z,78.43
2023-01-03T02:30:53.469Z,78.74
2023-01-03T02:33:32.796Z,78.36
2023-01-03T02:36:12.269Z,78.38
2023-01-03T02:38:51.582Z,78.78
2023-01-03T02:41:28.016Z,78.82
2023-01-03T02:44:10.525Z,78.71
2023-01-03T02:46:47.186Z,78.44
2023-01-03T02:49:26.852Z,78.59
2023-01-03T02:52:00.551Z,78.26
2023-01-03T02:54:34.034Z,78.32
2023-01-03T02:57:17.663Z,78.13
2023-01-03T02:59:54.187Z,78.06
2023-01-03T03:02:28.843Z,77.65
2023-01-03T03:05:02.886Z,76.80
2023-01-03T03:07:37.479Z,76.05
2023-01-03T03:10:30.817Z,75.45
2023-01-03T03:13:16.313Z,75.04
2023-01-03T03:16:01.900Z,74.71
2023-01-03T03:18:35.566Z,74.70
2023-01-03T03:21:27.761Z,74.97
2023-01-03T03:24:19.256Z,75.04
2023-01-03T03:26:51.948Z,75.01
2023-01-03T03:29:25.504Z,74.77
2023-01-03T03:31:57.407Z,75.26
2023-01-03T03:34:30.919Z,75.49
2023-01-03T03:37:19.927Z,75.58
2023-01-03T03:40:08.792Z,75.47
2023-01-03T03:43:11.992Z,75.55
2023-01-03T03:45:53.055Z,75.74
2023-01-03T03:49:04.034Z,76.23
2023-01-03T03:51:37.427Z,76.30
2023-01-03T03:54:10.927Z,76.25
2023-01-03T03:56:45.475Z,76.53
2023-01-03T03:59:20.840Z,76.68
2023-01-03T04:01:52.326Z,76.90
2023-01-03T04:04:27.633Z,77.34
2023-01-03T04:06:58.229Z,77.43
2023-01-03T04:09:29.064Z,77.63
2023-01-03T04:11:59.861Z,77.87
2023-01-03T04:14:30.553Z,78.33
2023-01-03T04:17:02.476Z,77.91
2023-01-03T04:19:32.859Z,78.64
2023-01-03T04:22:03.316Z,78.36
2023-01-03T04:24:33.830Z,78.29
2023-01-03T04:27:05.777Z,78.22
2023-01-03T04:29:39.455Z,78.65
2023-01-03T04:32:11.152Z,78.78
2023-01-03T04:34:41.720Z,78.93
2023-01-03T04:37:12.628Z,78.77
2023-01-03T04:39:43.583Z,78.55
2023-01-03T04:42:32.139Z,78.55
2023-01-03T04:45:03.180Z,78.99
2023-01-03T04:47:33.929Z,78.80
2023-01-03T04:50:04.990Z,78.73
2023-01-03T04:52:35.544Z,78.68
2023-01-03T04:55:08.106Z,79.02
2023-01-03T04:57:38.670Z,78.48
2023-01-03T05:00:10.255Z,78.56
2023-01-03T05:02:40.999Z,78.25
2023-01-03T05:05:12.135Z,78.80
2023-01-03T05:07:44.919Z,78.43
2023-01-03T05:10:15.740Z,78.81
2023-01-03T05:12:47.914Z,79.08
2023-01-03T05:15:19.915Z,79.35
2023-01-03T05:17:50.813Z,79.17
2023-01-03T05:20:39.679Z,79.60
2023-01-03T05:23:33.336Z,79.76
2023-01-03T05:26:19.868Z,80.16
2023-01-03T05:28:53.480Z,80.27
2023-01-03T05:31:24.077Z,80.58
2023-01-03T05:33:56.976Z,80.85
2023-01-03T05:36:27.881Z,80.89
2023-01-03T05:38:59.866Z,81.26
2023-01-03T05:41:48.208Z,81.44
2023-01-03T05:44:19.106Z,81.94
2023-01-03T05:46:50.191Z,81.75
2023-01-03T05:49:20.698Z,81.61
2023-01-03T05:51:51.179Z,81.73
2023-01-03T05:54:22.371Z,81.60
2023-01-03T05:56:52.948Z,81.91
2023-01-03T05:59:23.994Z,82.00
2023-01-03T06:01:54.482Z,82.09
2023-01-03T06:04:25.324Z,81.86
2023-01-03T06:06:55.901Z,81.85
2023-01-03T06:09:26.339Z,81.74
2023-01-03T06:11:56.934Z,82.31
2023-01-03T06:14:27.939Z,82.15
2023-01-03T06:17:16.468Z,82.00
2023-01-03T06:19:48.882Z,82.04
2023-01-03T06:22:19.377Z,82.04
2023-01-03T06:24:51.629Z,81.88
2023-01-03T06:27:24.709Z,81.81
2023-01-03T06:29:56.051Z,81.77
2023-01-03T06:32:26.649Z,81.75
2023-01-03T06:34:57.157Z,81.69
2023-01-03T06:37:28.876Z,81.44
2023-01-03T06:39:59.422Z,81.80
2023-01-03T06:42:47.501Z,81.57
2023-01-03T06:45:37.232Z,82.13
2023-01-03T06:48:27.765Z,82.38
2023-01-03T06:51:18.750Z,82.86
2023-01-03T06:53:50.343Z,83.04
2023-01-03T06:56:23.025Z,82.98
2023-01-03T06:58:53.670Z,83.14
2023-01-03T07:01:25.019Z,82.98
2023-01-03T07:03:57.303Z,83.49
2023-01-03T07:06:31.049Z,83.13
2023-01-03T07:09:01.964Z,83.47
2023-01-03T07:11:34.275Z,83.47
2023-01-03T07:14:08.601Z,83.31
2023-01-03T07:16:43.591Z,83.19
2023-01-03T07:19:19.629Z,83.44
2023-01-03T07:21:50.043Z,83.43
2023-01-03T07:24:21.111Z,83.50
2023-01-03T07:26:54.876Z,83.67
2023-01-03T07:29:26.919Z,83.48
2023-01-03T07:31:59.938Z,83.42
2023-01-03T07:34:30.975Z,83.11
2023-01-03T07:37:02.866Z,83.11
2023-01-03T07:39:35.311Z,83.33
2023-01-03T07:42:24.161Z,83.54
2023-01-03T07:44:56.295Z,83.40
2023-01-03T07:47:28.305Z,83.38
2023-01-03T07:49:58.802Z,83.10
2023-01-03T07:52:29.249Z,82.95
2023-01-03T07:54:59.859Z,82.88
2023-01-03T07:57:30.534Z,82.85
2023-01-03T08:00:03.365Z,82.84
2023-01-03T08:02:33.973Z,82.82
2023-01-03T08:05:04.763Z,82.93
2023-01-03T08:07:36.552Z,82.61
2023-01-03T08:10:27.606Z,82.78
2023-01-03T08:13:16.095Z,82.83
2023-01-03T08:15:49.031Z,82.67
2023-01-03T08:18:22.901Z,82.08
2023-01-03T08:20:57.253Z,82.08
2023-01-03T08:23:29.527Z,82.00
2023-01-03T08:26:07.719Z,81.49
2023-01-03T08:28:39.527Z,81.36
2023-01-03T08:31:15.923Z,81.60
2023-01-03T08:33:49.359Z,81.07
2023-01-03T08:36:21.267Z,80.84
2023-01-03T08:38:54.750Z,81.01
2023-01-03T08:41:28.570Z,80.85
2023-01-03T08:44:01.731Z,80.41
2023-01-03T08:46:34.195Z,80.79
2023-01-03T08:49:04.797Z,80.50
2023-01-03T08:51:35.333Z,80.06
2023-01-03T08:54:08.576Z,80.25
2023-01-03T08:56:40.290Z,79.66
2023-01-03T08:59:12.443Z,79.94
2023-01-03T09:01:43.984Z,79.55
2023-01-03T09:04:14.662Z,79.52
2023-01-03T09:06:45.237Z,79.33
2023-01-03T09:09:16.595Z,79.10
2023-01-03T09:11:46.953Z,79.47
2023-01-03T09:14:18.427Z,79.38
2023-01-03T09:16:49.740Z,78.44
2023-01-03T09:19:21.839Z,78.31
2023-01-03T09:21:52.276Z,78.14
2023-01-03T09:24:22.732Z,78.02
2023-01-03T09:26:55.047Z,77.69
2023-01-03T09:29:27.075Z,78.01
2023-01-03T09:31:59.898Z,77.12
2023-01-03T09:34:31.118Z,77.36
2023-01-03T09:37:04.337Z,76.95
2023-01-03T09:39:36.220Z,76.94
2023-01-03T09:42:25.832Z,77.01
2023-01-03T09:44:58.367Z,76.90
2023-01-03T09:47:30.475Z,76.48
2023-01-03T09:52:52.518Z,76.27
2023-01-03T09:55:46.798Z,76.30
2023-01-03T09:58:35.526Z,75.83
2023-01-03T10:01:43.511Z,75.92
2023-01-03T10:04:19.973Z,75.80
2023-01-03T10:07:17.172Z,76.26
2023-01-03T10:09:58.245Z,76.15
2023-01-03T10:12:40.636Z,75.74
2023-01-03T10:15:41.475Z,75.13
2023-01-03T10:18:30.563Z,75.03
2023-01-03T10:21:25.236Z,74.94
2023-01-03T10:23:56.917Z,74.34
2023-01-03T10:26:32.992Z,73.70
2023-01-03T10:29:02.660Z,73.43
2023-01-03T10:31:58.050Z,74.12
2023-01-03T10:34:30.113Z,74.16
2023-01-03T10:37:00.945Z,74.75
2023-01-03T10:39:33.003Z,74.45
2023-01-03T10:42:07.123Z,74.84
2023-01-03T10:44:39.040Z,74.78
2023-01-03T10:47:13.024Z,75.54
2023-01-03T10:49:50.844Z,75.72
2023-01-03T10:52:24.015Z,75.97
2023-01-03T10:54:57.050Z,75.71
2023-01-03T10:57:47.397Z,75.12
2023-01-03T11:00:29.758Z,75.57
2023-01-03T11:03:21.682Z,75.39
2023-01-03T11:06:07.359Z,75.26
2023-01-03T11:08:49.693Z,75.27
2023-01-03T11:11:37.023Z,75.27
2023-01-03T11:14:28.237Z,75.17
2023-01-03T11:17:08.125Z,74.91
2023-01-03T11:19:39.103Z,74.88
2023-01-03T11:22:33.841Z,74.92
2023-01-03T11:25:04.584Z,74.64
2023-01-03T11:27:40.983Z,74.65
2023-01-03T11:30:24.472Z,74.23
2023-01-03T11:33:11.688Z,74.10
2023-01-03T11:35:59.161Z,74.31
2023-01-03T11:38:39.929Z,74.51
2023-01-03T11:41:25.857Z,74.81
2023-01-03T11:44:22.438Z,74.63
2023-01-03T11:47:23.362Z,75.19
2023-01-03T11:50:00.218Z,75.57
2023-01-03T11:53:02.101Z,74.96
2023-01-03T11:55:37.750Z,74.73
2023-01-03T11:58:34.578Z,74.72
2023-01-03T12:01:39.651Z,73.98
2023-01-03T12:04:39.344Z,73.60
2023-01-03T12:10:09.790Z,73.60
2023-01-03T12:12:58.866Z,73.92
2023-01-03T12:15:45.061Z,74.48
2023-01-03T12:18:22.536Z,74.54
2023-01-03T12:20:56.868Z,74.40
2023-01-03T12:23:40.462Z,71.94
2023-01-03T12:26:18.398Z,71.86
2023-01-03T12:29:02.992Z,71.60
2023-01-03T12:31:43.530Z,71.45
2023-01-03T12:34:19.730Z,70.91
2023-01-03T12:36:53.325Z,71.13
2023-01-03T12:39:58.216Z,70.89
2023-01-03T12:42:40.904Z,70.78
2023-01-03T12:45:38.948Z,70.53
2023-01-03T12:48:15.696Z,71.30
2023-01-03T12:50:54.784Z,71.43
2023-01-03T12:53:35.040Z,71.56
2023-01-03T12:56:40.668Z,71.70
2023-01-03T12:59:24.730Z,71.80
2023-01-03T13:02:04.703Z,71.87
2023-01-03T13:04:41.001Z,71.89
2023-01-03T13:07:23.587Z,71.68
2023-01-03T13:10:05.852Z,71.62
2023-01-03T13:12:41.490Z,71.83
2023-01-03T13:15:21.448Z,71.96
2023-01-03T13:17:54.473Z,72.08
2023-01-03T13:20:37.575Z,71.67
2023-01-03T13:23:32.583Z,71.76
2023-01-03T13:26:10.862Z,70.86
2023-01-03T13:28:41.814Z,71.65
2023-01-03T13:31:23.005Z,72.38
2023-01-03T13:33:58.705Z,72.09
2023-01-03T13:36:33.573Z,71.95
2023-01-03T13:39:07.680Z,71.90
2023-01-03T13:41:40.691Z,71.84
2023-01-03T13:44:20.664Z,71.89
2023-01-03T13:46:52.900Z,71.70
2023-01-03T13:49:30.367Z,72.38
2023-01-03T13:52:04.012Z,73.03
2023-01-03T13:54:38.976Z,72.88
2023-01-03T13:57:32.135Z,72.14
2023-01-03T14:00:05.787Z,72.58
2023-01-03T14:03:13.085Z,72.63
2023-01-03T14:06:15.945Z,73.07
2023-01-03T14:08:58.501Z,73.03
2023-01-03T14:11:53.911Z,73.11
2023-01-03T14:14:28.604Z,73.22
2023-01-03T14:17:01.197Z,73.28
2023-01-03T14:19:35.486Z,73.54
2023-01-03T14:22:28.130Z,73.73
2023-01-03T14:24:54.931Z,73.50
2023-01-03T14:27:34.365Z,73.81
2023-01-03T14:30:27.363Z,73.30
2023-01-03T14:32:59.476Z,73.63
2023-01-03T14:35:44.255Z,74.04
2023-01-03T14:38:26.055Z,74.31
2023-01-03T14:40:58.929Z,74.60
2023-01-03T14:43:31.769Z,74.98
2023-01-03T14:46:08.580Z,75.61
2023-01-03T14:48:43.065Z,75.62
2023-01-03T14:51:17.948Z,75.23
2023-01-03T14:53:48.708Z,76.03
2023-01-03T14:56:23.715Z,76.53
2023-01-03T14:58:55.047Z,76.62
2023-01-03T15:01:29.103Z,76.91
2023-01-03T15:04:00.490Z,77.44
2023-01-03T15:06:33.140Z,78.00
2023-01-03T15:09:06.795Z,77.75
2023-01-03T15:11:41.884Z,77.91
2023-01-03T15:14:15.023Z,78.38
2023-01-03T15:16:47.024Z,77.58
2023-01-03T15:19:25.001Z,77.92
2023-01-03T15:22:12.769Z,78.22
2023-01-03T15:24:46.529Z,77.61
2023-01-03T15:27:34.818Z,78.34
2023-01-03T15:30:15.284Z,77.91
2023-01-03T15:33:01.114Z,77.51
2023-01-03T15:35:44.421Z,77.97
2023-01-03T15:38:33.362Z,78.21
2023-01-03T15:41:22.870Z,78.36
2023-01-03T15:43:54.847Z,78.52
2023-01-03T15:46:27.828Z,78.79
2023-01-03T15:48:59.712Z,79.09
2023-01-03T15:51:30.390Z,78.84
2023-01-03T15:54:01.008Z,79.31
2023-01-03T15:56:38.358Z,79.43
2023-01-03T15:59:12.070Z,80.22
2023-01-03T16:01:45.196Z,80.78
2023-01-03T16:04:16.292Z,81.24
2023-01-03T16:06:47.438Z,80.70
2023-01-03T16:09:18.046Z,81.00
2023-01-03T16:11:54.107Z,80.96
2023-01-03T16:14:27.104Z,81.03
2023-01-03T16:16:58.522Z,81.24
2023-01-03T16:19:30.086Z,81.60
2023-01-03T16:24:36.284Z,82.03
2023-01-03T16:27:23.767Z,82.20
2023-01-03T16:29:55.154Z,82.48
2023-01-03T16:32:28.896Z,82.31
2023-01-03T16:35:05.106Z,82.45
2023-01-03T16:37:35.920Z,82.12
2023-01-03T16:40:17.640Z,81.32
2023-01-03T16:42:49.895Z,81.02
2023-01-03T16:45:21.692Z,80.98
2023-01-03T16:48:03.907Z,81.55
2023-01-03T16:50:37.858Z,81.46
2023-01-03T16:53:13.311Z,81.57
2023-01-03T16:55:44.260Z,82.00
2023-01-03T16:58:18.312Z,82.03
2023-01-03T17:00:48.931Z,82.07
2023-01-03T17:03:23.854Z,82.08
2023-01-03T17:05:56.604Z,82.76
2023-01-03T17:08:41.982Z,82.80
2023-01-03T17:11:14.270Z,82.46
2023-01-03T17:13:48.718Z,82.64
2023-01-03T17:16:28.518Z,81.92
2023-01-03T17:19:02.695Z,81.64
2023-01-03T17:21:39.121Z,81.63
2023-01-03T17:24:16.389Z,81.50
2023-01-03T17:26:55.215Z,81.23
2023-01-03T17:29:27.586Z,81.37
2023-01-03T17:31:58.953Z,81.90
2023-01-03T17:34:33.869Z,81.39
2023-01-03T17:37:04.459Z,81.89
2023-01-03T17:39:35.077Z,82.24
2023-01-03T17:42:16.199Z,82.64
2023-01-03T17:45:08.144Z,82.43
2023-01-03T17:48:02.039Z,82.99
2023-01-03T17:50:33.648Z,82.45
2023-01-03T17:53:04.363Z,82.42
2023-01-03T17:55:35.585Z,82.16
2023-01-03T17:58:06.437Z,82.61
2023-01-03T18:00:39.087Z,83.11
2023-01-03T18:03:11.525Z,82.43
2023-01-03T18:05:46.088Z,82.19
2023-01-03T18:08:20.712Z,82.20
2023-01-03T18:10:56.237Z,82.09
2023-01-03T18:13:36.408Z,82.09
2023-01-03T18:16:07.553Z,82.31
2023-01-03T18:18:43.728Z,83.56
2023-01-03T18:21:21.567Z,83.30
2023-01-03T18:24:00.846Z,83.53
2023-01-03T18:26:37.402Z,83.88
2023-01-03T18:29:08.701Z,83.64
2023-01-03T18:31:40.760Z,83.73
2023-01-03T18:34:16.236Z,83.75
2023-01-03T18:36:49.941Z,83.87
2023-01-03T18:39:29.197Z,83.77
2023-01-03T18:42:01.575Z,83.97
2023-01-03T18:44:33.195Z,83.91
2023-01-03T18:47:03.756Z,83.81
2023-01-03T18:49:37.052Z,83.91
2023-01-03T18:52:07.764Z,84.23
2023-01-03T18:54:40.955Z,84.30
2023-01-03T18:57:14.098Z,84.44
2023-01-03T18:59:48.517Z,84.58
2023-01-03T19:02:21.363Z,84.39
2023-01-03T19:04:52.314Z,84.99
2023-01-03T19:07:37.415Z,84.94
2023-01-03T19:10:13.915Z,84.71
2023-01-03T19:12:45.509Z,84.46
2023-01-03T19:15:22.001Z,84.12
2023-01-03T19:17:54.801Z,84.02
2023-01-03T19:20:27.166Z,84.15
2023-01-03T19:22:58.237Z,84.06
2023-01-03T19:25:31.455Z,84.17
2023-01-03T19:28:04.568Z,84.20
2023-01-03T19:30:42.643Z,84.01
2023-01-03T19:33:16.887Z,83.94
2023-01-03T19:35:47.676Z,83.67
2023-01-03T19:38:19.702Z,84.05
2023-01-03T19:40:51.654Z,84.25
2023-01-03T19:43:25.768Z,84.15
2023-01-03T19:45:59.665Z,84.34
2023-01-03T19:48:31.702Z,83.50
2023-01-03T19:51:03.629Z,83.29
2023-01-03T19:53:34.642Z,83.39
2023-01-03T19:56:07.391Z,83.09
2023-01-03T19:58:41.204Z,83.40
2023-01-03T20:01:18.929Z,83.29
2023-01-03T20:03:56.193Z,83.53
2023-01-03T20:06:26.510Z,83.66
2023-01-03T20:08:58.972Z,83.61
2023-01-03T20:11:33.419Z,83.46
2023-01-03T20:14:07.191Z,83.54
2023-01-03T20:16:38.323Z,83.67
2023-01-03T20:19:18.139Z,83.70
2023-01-03T20:21:50.579Z,83.43
2023-01-03T20:24:24.444Z,83.52
2023-01-03T20:26:56.955Z,83.00
2023-01-03T20:29:28.953Z,82.91
2023-01-03T20:32:04.206Z,82.92
2023-01-03T20:34:35.377Z,82.69
2023-01-03T20:37:09.810Z,82.43
2023-01-03T20:39:40.318Z,82.47
2023-01-03T20:42:22.833Z,82.42
2023-01-03T20:44:53.271Z,82.37
2023-01-03T20:47:26.831Z,82.37
2023-01-03T20:49:57.335Z,82.15
2023-01-03T20:52:32.093Z,82.65
2023-01-03T20:55:02.642Z,82.91
2023-01-03T20:57:35.693Z,83.21
2023-01-03T21:00:08.131Z,83.37
2023-01-03T21:02:39.991Z,83.64
2023-01-03T21:05:11.728Z,83.68
2023-01-03T21:08:02.226Z,83.65
2023-01-03T21:10:35.691Z,83.27
2023-01-03T21:13:10.067Z,83.24
2023-01-03T21:15:40.586Z,83.11
2023-01-03T21:18:14.708Z,83.06
2023-01-03T21:20:46.669Z,83.00
2023-01-03T21:23:20.638Z,82.93
2023-01-03T21:25:56.438Z,82.95
2023-01-03T21:28:28.171Z,83.02
2023-01-03T21:31:05.390Z,82.92
2023-01-03T21:33:35.180Z,83.00
2023-01-03T21:36:06.083Z,83.22
2023-01-03T21:38:36.905Z,83.21
2023-01-03T21:41:07.547Z,82.99
2023-01-03T21:43:42.188Z,82.94
2023-01-03T21:46:16.245Z,82.78
2023-01-03T21:48:46.847Z,82.71
2023-01-03T21:51:33.084Z,82.75
2023-01-03T21:53:53.885Z,82.80
2023-01-03T21:56:25.952Z,82.75
2023-01-03T21:58:56.410Z,82.54
2023-01-03T22:01:27.189Z,82.60
2023-01-03T22:04:19.029Z,82.40
2023-01-03T22:06:49.491Z,82.45
2023-01-03T22:09:39.040Z,82.68
2023-01-03T22:12:15.621Z,82.49
2023-01-03T22:14:49.046Z,82.41
2023-01-03T22:17:22.531Z,82.56
2023-01-03T22:19:54.565Z,82.40
2023-01-03T22:22:25.289Z,82.46
2023-01-03T22:24:59.041Z,82.71
2023-01-03T22:27:32.894Z,83.05
2023-01-03T22:30:07.236Z,82.49
2023-01-03T22:32:41.236Z,82.98
2023-01-03T22:35:13.788Z,82.83
2023-01-03T22:37:46.464Z,83.13
2023-01-03T22:40:19.139Z,83.16
2023-01-03T22:42:49.690Z,83.47
2023-01-03T22:45:22.629Z,83.51
2023-01-03T22:47:53.086Z,83.77
2023-01-03T22:50:23.540Z,84.03
2023-01-03T22:52:55.005Z,84.03
2023-01-03T22:55:31.770Z,84.32
2023-01-03T22:57:58.208Z,84.51
2023-01-03T23:00:30.284Z,84.55
2023-01-03T23:03:03.395Z,84.58
2023-01-03T23:05:35.960Z,84.83
2023-01-03T23:08:06.817Z,84.96
2023-01-03T23:10:38.427Z,84.87
2023-01-03T23:13:12.586Z,85.01
2023-01-03T23:15:43.184Z,85.35
2023-01-03T23:18:14.692Z,85.30
2023-01-03T23:20:47.443Z,85.39
2023-01-03T23:23:18.045Z,85.25
2023-01-03T23:25:50.873Z,85.07
2023-01-03T23:28:21.391Z,85.21
2023-01-03T23:30:51.967Z,85.23
2023-01-03T23:33:24.267Z,85.21
2023-01-03T23:35:54.716Z,85.40
2023-01-03T23:38:27.398Z,85.50
2023-01-03T23:40:59.698Z,85.61
2023-01-03T23:43:30.424Z,85.69
2023-01-03T23:46:02.325Z,85.95
2023-01-03T23:48:33.502Z,85.96
2023-01-03T23:51:09.194Z,86.16
2023-01-03T23:53:42.199Z,86.07
2023-01-03T23:56:20.128Z,86.11
2023-01-03T23:58:53.018Z,86.16
